Time;durP1;ratioP1;P1;durP2;ratioP2;P2;SDS_P1;SDS_P2;PMS_P1;PMS_P2;Temp;Humidity;BMP_temperature;BMP_pressure;BME280_temperature;BME280_humidity;BME280_pressure;Samples;Min_cycle;Max_cycle;Signal;HPM_P1;HPM_P2
2022/10/04 03:00:30;;;;;;;22.70;8.32;;;11.50;99.90;;;;;;6280385;22;20014;-81
2022/10/04 03:03:55;;;;;;;21.88;9.23;;;11.50;99.90;;;;;;6310595;22;20432;-80
2022/10/04 03:06:27;;;;;;;17.58;9.07;;;11.50;99.90;;;;;;6267926;22;20011;-82
2022/10/04 03:08:57;;;;;;;19.73;9.00;;;11.50;99.90;;;;;;6287349;22;20049;-80
2022/10/04 03:11:28;;;;;;;19.77;9.35;;;11.40;99.90;;;;;;6285854;22;20017;-82
2022/10/04 03:13:57;;;;;;;28.05;9.30;;;11.50;99.90;;;;;;6311000;22;20101;-78
2022/10/04 03:16:24;;;;;;;23.50;9.75;;;11.40;99.90;;;;;;6339151;22;20015;-80
2022/10/04 03:18:55;;;;;;;21.23;9.10;;;11.40;99.90;;;;;;6339504;22;20003;-81
2022/10/04 03:21:22;;;;;;;19.63;9.38;;;11.40;99.90;;;;;;6311933;22;20042;-80
2022/10/04 03:23:49;;;;;;;28.85;9.55;;;11.40;99.90;;;;;;6311946;22;20014;-80
2022/10/04 03:26:39;;;;;;;19.40;9.63;;;11.40;99.90;;;;;;6286220;22;20500;-82
2022/10/04 03:29:11;;;;;;;19.20;9.70;;;11.40;99.90;;;;;;6339554;22;20013;-81
2022/10/04 03:31:41;;;;;;;16.20;9.43;;;11.40;99.90;;;;;;6311712;22;20015;-80
2022/10/04 03:34:14;;;;;;;22.90;9.40;;;11.40;99.90;;;;;;6311923;22;20038;-77
2022/10/04 03:36:40;;;;;;;21.75;9.77;;;11.30;99.90;;;;;;6311602;22;20038;-83
2022/10/04 03:39:09;;;;;;;21.70;9.73;;;11.30;99.90;;;;;;6312958;22;20065;-82
2022/10/04 03:41:41;;;;;;;23.55;9.07;;;11.30;99.90;;;;;;6340404;22;20394;-79
2022/10/04 03:44:15;;;;;;;17.45;8.98;;;11.30;99.90;;;;;;6313701;22;20324;-80
2022/10/04 03:46:49;;;;;;;19.48;9.52;;;11.30;99.90;;;;;;6312919;22;20064;-80
2022/10/04 03:49:27;;;;;;;20.17;9.82;;;11.30;99.90;;;;;;6341148;22;20021;-81
2022/10/04 03:51:53;;;;;;;23.95;9.95;;;11.20;99.90;;;;;;6312943;22;20085;-81
2022/10/04 03:54:22;;;;;;;21.33;9.73;;;11.20;99.90;;;;;;6340278;22;20424;-80
2022/10/04 03:56:50;;;;;;;23.08;10.10;;;11.20;99.90;;;;;;6312016;22;20018;-79
2022/10/04 03:59:17;;;;;;;23.02;10.15;;;11.20;99.90;;;;;;6311594;22;20017;-79
2022/10/04 04:01:46;;;;;;;19.90;10.38;;;11.10;99.90;;;;;;6311316;22;20010;-78
2022/10/04 04:04:34;;;;;;;19.48;10.43;;;11.10;99.90;;;;;;6311388;22;20018;-85
2022/10/04 04:07:32;;;;;;;28.98;10.75;;;11.10;99.90;;;;;;6286674;22;20344;-80
2022/10/04 04:10:25;;;;;;;22.48;10.85;;;11.10;99.90;;;;;;6311778;22;20014;-83
2022/10/04 04:13:00;;;;;;;24.48;10.75;;;11.10;99.90;;;;;;6311722;22;20459;-81
2022/10/04 04:15:31;;;;;;;20.85;10.20;;;11.10;99.90;;;;;;6311496;22;20336;-79
2022/10/04 04:18:02;;;;;;;22.27;11.15;;;11.10;99.90;;;;;;6311396;22;20046;-81
2022/10/04 04:20:35;;;;;;;26.05;11.82;;;11.00;99.90;;;;;;6312585;22;20009;-83
2022/10/04 04:23:10;;;;;;;29.30;12.50;;;11.10;99.90;;;;;;6312438;22;20136;-82
2022/10/04 04:25:40;;;;;;;25.95;11.73;;;11.00;99.90;;;;;;6313833;22;20069;-79
2022/10/04 04:28:30;;;;;;;21.75;11.07;;;11.00;99.90;;;;;;6287714;22;20014;-81
2022/10/04 04:31:09;;;;;;;27.23;11.32;;;11.00;99.90;;;;;;6313627;22;20089;-80
2022/10/04 04:33:48;;;;;;;18.38;11.07;;;11.00;99.90;;;;;;6341726;22;20018;-82
2022/10/04 04:36:16;;;;;;;22.30;11.60;;;10.90;99.90;;;;;;6313538;22;20011;-81
2022/10/04 04:41:30;;;;;;;21.25;12.35;;;10.90;99.90;;;;;;6313375;22;20018;-81
2022/10/04 04:43:56;;;;;;;23.67;11.75;;;10.90;99.90;;;;;;6313377;22;20309;-80
2022/10/04 04:46:22;;;;;;;28.95;12.32;;;10.90;99.90;;;;;;6313594;22;20006;-78
2022/10/04 04:49:03;;;;;;;24.55;12.88;;;10.90;99.90;;;;;;6341052;22;20011;-81
2022/10/04 04:51:31;;;;;;;23.27;12.05;;;10.80;99.90;;;;;;6313425;22;20011;-81
2022/10/04 04:54:01;;;;;;;23.75;12.15;;;10.80;99.90;;;;;;6341123;22;20010;-77
2022/10/04 04:56:27;;;;;;;27.77;12.38;;;10.80;99.90;;;;;;6313040;22;20010;-80
2022/10/04 04:58:58;;;;;;;32.05;13.38;;;10.80;99.90;;;;;;6313123;22;20010;-81
2022/10/04 05:01:24;;;;;;;27.13;12.43;;;10.70;99.90;;;;;;6287785;22;20427;-81
2022/10/04 05:04:21;;;;;;;27.35;12.82;;;10.70;99.90;;;;;;6313732;22;20045;-81
2022/10/04 05:06:59;;;;;;;25.60;12.52;;;10.70;99.90;;;;;;6295011;22;20332;-79
2022/10/04 05:09:39;;;;;;;22.20;12.02;;;10.70;99.90;;;;;;6313558;22;20308;-80
2022/10/04 05:12:10;;;;;;;21.35;11.73;;;10.70;99.90;;;;;;6312846;22;20473;-80
2022/10/04 05:14:48;;;;;;;24.08;12.30;;;10.70;99.90;;;;;;6313092;22;20018;-82
2022/10/04 05:17:34;;;;;;;22.70;12.80;;;10.70;99.90;;;;;;6287360;22;20007;-80
2022/10/04 05:20:00;;;;;;;;;;;10.70;99.90;;;;;;6313405;22;20018;-79
2022/10/04 05:22:29;;;;;;;22.40;12.00;;;10.60;99.90;;;;;;6312845;22;19911;-79
2022/10/04 05:24:59;;;;;;;29.85;12.23;;;10.60;99.90;;;;;;6340515;22;20017;-81
2022/10/04 05:27:36;;;;;;;25.45;12.18;;;10.60;99.90;;;;;;6312956;22;20010;-82
2022/10/04 05:30:21;;;;;;;24.10;12.45;;;10.60;99.90;;;;;;6313304;22;20049;-80
2022/10/04 05:33:07;;;;;;;23.08;12.57;;;10.50;99.90;;;;;;6312821;22;20407;-80
2022/10/04 05:35:55;;;;;;;23.88;12.82;;;10.50;99.90;;;;;;6312321;22;20011;-81
2022/10/04 05:38:40;;;;;;;20.30;12.25;;;10.50;99.90;;;;;;6313158;22;20014;-80
2022/10/04 05:41:41;;;;;;;22.40;11.90;;;10.50;99.90;;;;;;6286334;22;20093;-79
2022/10/04 05:44:26;;;;;;;23.63;12.05;;;10.50;99.90;;;;;;6313112;22;20006;-84
2022/10/04 05:46:58;;;;;;;23.27;12.00;;;10.50;99.90;;;;;;6312574;22;20015;-83
2022/10/04 05:49:27;;;;;;;22.02;9.77;;;10.50;99.90;;;;;;6341186;22;20011;-80
2022/10/04 05:52:02;;;;;;;16.85;8.68;;;10.50;99.90;;;;;;6312587;22;20065;-81
2022/10/04 05:54:31;;;;;;;17.37;9.03;;;10.50;99.90;;;;;;6313013;22;20448;-80
2022/10/04 05:57:11;;;;;;;19.65;8.25;;;10.50;99.90;;;;;;6312632;22;20261;-79
2022/10/04 05:59:42;;;;;;;15.93;8.63;;;10.50;99.90;;;;;;6312683;22;20011;-85
2022/10/04 06:02:31;;;;;;;16.88;8.55;;;10.50;99.90;;;;;;6340690;22;20046;-80
2022/10/04 06:05:02;;;;;;;16.75;8.23;;;10.50;99.90;;;;;;6276751;22;20086;-79
2022/10/04 06:07:48;;;;;;;19.35;8.82;;;10.50;99.90;;;;;;6312475;22;20018;-82
2022/10/04 06:10:25;;;;;;;15.10;8.63;;;10.50;99.90;;;;;;6340393;22;20029;-82
2022/10/04 06:13:14;;;;;;;18.38;8.25;;;10.50;99.90;;;;;;6312366;22;20444;-81
2022/10/04 06:15:58;;;;;;;14.95;8.63;;;10.50;99.90;;;;;;6312390;22;20015;-79
2022/10/04 06:18:32;;;;;;;24.05;9.25;;;10.50;99.90;;;;;;6340857;22;20327;-81
2022/10/04 06:21:19;;;;;;;22.25;9.02;;;10.50;99.90;;;;;;6340549;22;20415;-82
2022/10/04 06:24:10;;;;;;;19.00;8.85;;;10.40;99.90;;;;;;6312386;22;20011;-74
2022/10/04 06:26:57;;;;;;;25.38;9.57;;;10.50;99.90;;;;;;6311395;22;20459;-81
2022/10/04 06:29:34;;;;;;;21.50;9.07;;;10.40;99.90;;;;;;6313503;22;20014;-80
2022/10/04 06:32:25;;;;;;;17.83;9.70;;;10.50;99.90;;;;;;6340072;22;20017;-80
2022/10/04 06:35:26;;;;;;;25.80;10.00;;;10.50;99.90;;;;;;6312534;22;20003;-81
2022/10/04 06:38:19;;;;;;;20.98;10.25;;;10.50;99.90;;;;;;6254382;22;20018;-82
2022/10/04 06:41:22;;;;;;;19.65;9.40;;;10.50;99.90;;;;;;6312199;22;20011;-77
2022/10/04 06:44:06;;;;;;;25.45;9.02;;;10.60;99.90;;;;;;6312456;22;20018;-80
2022/10/04 06:46:47;;;;;;;23.10;10.75;;;10.60;99.90;;;;;;6312373;22;20042;-81
2022/10/04 06:49:31;;;;;;;20.92;9.35;;;10.60;99.90;;;;;;6340127;22;20014;-80
2022/10/04 06:52:09;;;;;;;22.75;10.80;;;10.70;99.90;;;;;;6312151;22;20023;-83
2022/10/04 06:55:04;;;;;;;22.80;9.65;;;10.70;99.90;;;;;;6312459;22;20014;-78
2022/10/04 06:57:41;;;;;;;26.30;10.85;;;10.80;99.90;;;;;;6340224;22;20007;-80
2022/10/04 07:00:10;;;;;;;27.67;11.38;;;10.80;99.90;;;;;;6312396;22;20012;-81
2022/10/04 07:02:48;;;;;;;19.00;9.98;;;10.80;99.90;;;;;;6339518;22;20082;-82
2022/10/04 07:05:31;;;;;;;20.38;10.13;;;10.90;99.90;;;;;;6340163;22;20099;-81
2022/10/04 07:08:29;;;;;;;23.95;10.27;;;10.90;99.90;;;;;;6312098;22;20026;-78
2022/10/04 07:11:16;;;;;;;26.10;10.65;;;10.90;99.90;;;;;;6312591;22;20397;-76
2022/10/04 07:14:15;;;;;;;19.15;10.48;;;10.90;99.90;;;;;;6340089;22;20015;-82
2022/10/04 07:16:53;;;;;;;21.73;11.00;;;10.90;99.90;;;;;;6339999;22;20013;-79
2022/10/04 07:19:19;;;;;;;22.65;10.25;;;10.90;99.90;;;;;;6312585;22;20010;-81
2022/10/04 07:22:16;;;;;;;20.80;10.73;;;11.00;99.90;;;;;;6312289;22;20018;-80
2022/10/04 07:25:03;;;;;;;23.08;10.82;;;11.00;99.90;;;;;;6270391;22;20072;-77
2022/10/04 07:29:19;;;;;;;22.55;10.93;;;11.00;99.90;;;;;;6312263;22;20017;-79
2022/10/04 07:30:40;;;;;;;26.17;12.02;;;11.10;99.90;;;;;;6311489;22;20019;-79
2022/10/04 07:33:11;;;;;;;22.38;10.65;;;11.20;99.90;;;;;;6286033;22;20484;-77
2022/10/04 07:35:46;;;;;;;23.35;12.10;;;11.30;99.90;;;;;;6311773;22;20037;-80
2022/10/04 07:38:12;;;;;;;26.48;11.63;;;11.30;99.90;;;;;;6311785;22;20007;-80
2022/10/04 07:41:02;;;;;;;23.23;11.25;;;11.40;99.90;;;;;;6312427;22;20094;-79
2022/10/04 07:43:31;;;;;;;25.50;11.52;;;11.50;99.90;;;;;;6312526;22;20018;-82
2022/10/04 07:46:15;;;;;;;22.23;11.45;;;11.60;99.90;;;;;;6312563;22;20098;-81
2022/10/04 07:48:42;;;;;;;19.55;11.32;;;11.60;99.90;;;;;;6312510;22;20086;-79
2022/10/04 07:51:30;;;;;;;23.35;10.38;;;11.70;99.90;;;;;;6312269;22;20015;-81
2022/10/04 07:54:09;;;;;;;21.08;10.27;;;11.70;99.90;;;;;;6312005;22;20011;-78
2022/10/04 07:57:12;;;;;;;22.52;10.50;;;11.80;99.90;;;;;;6340431;22;20019;-78
2022/10/04 07:59:55;;;;;;;22.52;11.05;;;11.90;99.90;;;;;;6302031;22;20029;-81
2022/10/04 08:02:27;;;;;;;17.10;9.00;;;12.00;99.90;;;;;;6338534;22;20038;-82
2022/10/04 08:05:28;;;;;;;22.45;10.20;;;12.00;99.90;;;;;;6312721;22;20074;-80
2022/10/04 08:07:59;;;;;;;17.48;9.00;;;12.10;99.90;;;;;;6317716;22;20007;-79
2022/10/04 08:10:32;;;;;;;23.83;11.50;;;12.20;99.90;;;;;;6311707;22;20113;-79
2022/10/04 08:13:09;;;;;;;20.35;10.95;;;12.30;99.90;;;;;;6312147;22;20367;-79
2022/10/04 08:15:40;;;;;;;24.65;11.00;;;12.40;99.90;;;;;;6312574;22;20162;-79
2022/10/04 08:18:34;;;;;;;22.98;9.00;;;12.50;99.90;;;;;;6312295;22;20011;-79
2022/10/04 08:21:04;;;;;;;17.20;9.32;;;12.60;99.90;;;;;;6339537;22;20375;-79
2022/10/04 08:24:03;;;;;;;16.50;8.85;;;12.70;99.90;;;;;;6311225;22;20007;-79
2022/10/04 08:26:51;;;;;;;21.48;9.10;;;12.90;99.90;;;;;;6311557;22;20021;-79
2022/10/04 08:29:51;;;;;;;13.45;7.40;;;13.00;99.90;;;;;;6311691;22;20019;-80
2022/10/04 08:32:22;;;;;;;12.20;7.10;;;13.10;99.90;;;;;;6311534;22;20411;-80
2022/10/04 08:35:29;;;;;;;13.35;6.85;;;13.10;99.90;;;;;;6285810;22;20014;-78
2022/10/04 08:38:34;;;;;;;17.20;7.30;;;13.30;99.90;;;;;;6311639;22;20045;-79
2022/10/04 08:41:06;;;;;;;11.20;6.63;;;13.30;99.90;;;;;;6339261;22;20331;-78
2022/10/04 08:44:09;;;;;;;20.55;8.57;;;13.40;99.90;;;;;;6311711;22;20037;-77
2022/10/04 08:47:12;;;;;;;13.32;7.03;;;13.50;99.90;;;;;;6311354;22;20093;-79
2022/10/04 08:49:57;;;;;;;11.65;6.45;;;13.50;99.90;;;;;;6340271;22;20052;-81
2022/10/04 08:52:35;;;;;;;18.85;7.95;;;13.60;99.90;;;;;;6311290;22;20014;-79
2022/10/04 08:55:36;;;;;;;13.50;6.65;;;13.70;99.90;;;;;;6285575;22;20385;-82
2022/10/04 08:58:23;;;;;;;17.15;7.70;;;13.70;99.90;;;;;;6339217;22;20011;-80
2022/10/04 09:00:51;;;;;;;13.88;7.65;;;13.90;99.90;;;;;;6311121;22;20022;-78
2022/10/04 09:03:41;;;;;;;12.95;6.75;;;14.00;99.90;;;;;;6339569;22;20333;-77
2022/10/04 09:06:31;;;;;;;12.38;7.22;;;14.00;99.90;;;;;;6312464;22;20366;-78
2022/10/04 09:09:24;;;;;;;14.60;6.32;;;14.10;99.90;;;;;;6311955;22;20067;-82
2022/10/04 09:12:30;;;;;;;16.63;7.22;;;14.10;99.90;;;;;;6313370;22;20098;-76
2022/10/04 09:15:14;;;;;;;;;;;14.30;99.90;;;;;;6254436;22;20011;-80
2022/10/04 09:17:54;;;;;;;11.90;6.05;;;14.30;99.90;;;;;;6287459;22;19918;-80
2022/10/04 09:20:50;;;;;;;15.00;6.32;;;14.50;99.90;;;;;;6313331;22;20015;-77
2022/10/04 09:23:28;;;;;;;12.35;6.10;;;14.60;99.90;;;;;;6313187;22;20015;-80
2022/10/04 09:26:20;;;;;;;12.82;6.63;;;14.70;99.90;;;;;;6313367;22;20018;-79
2022/10/04 09:28:57;;;;;;;14.75;6.30;;;14.70;99.90;;;;;;6313452;22;20143;-82
2022/10/04 09:31:49;;;;;;;13.07;5.93;;;14.80;99.90;;;;;;6287544;22;20017;-78
2022/10/04 09:34:43;;;;;;;10.40;5.50;;;14.80;99.90;;;;;;6306754;22;20010;-79
2022/10/04 09:37:23;;;;;;;13.05;6.00;;;15.00;99.90;;;;;;6312595;22;20065;-80
2022/10/04 09:40:27;;;;;;;13.63;6.40;;;15.00;99.90;;;;;;6312838;22;20043;-79
2022/10/04 09:43:27;;;;;;;13.45;5.82;;;15.00;99.90;;;;;;6340730;22;20007;-82
2022/10/04 09:46:08;;;;;;;10.63;5.40;;;15.00;99.90;;;;;;6318349;22;20089;-82
2022/10/04 09:48:39;;;;;;;8.82;5.40;;;15.10;99.90;;;;;;6312971;22;20341;-81
2022/10/04 09:51:19;;;;;;;14.02;5.43;;;15.20;99.90;;;;;;6312725;22;20014;-81
2022/10/04 09:53:57;;;;;;;10.30;5.03;;;15.30;99.90;;;;;;6312652;22;20014;-81
2022/10/04 09:56:45;;;;;;;15.57;6.32;;;15.40;99.90;;;;;;6312452;22;20049;-79
2022/10/04 10:00:04;;;;;;;11.35;5.90;;;15.50;99.90;;;;;;6312430;22;20037;-79
2022/10/04 10:02:37;;;;;;;11.80;6.13;;;15.60;99.90;;;;;;6247498;22;20015;-78
2022/10/04 10:05:23;;;;;;;12.32;5.65;;;15.70;99.90;;;;;;6286723;22;20011;-80
2022/10/04 10:08:08;;;;;;;;;;;15.80;99.90;;;;;;6266223;22;20038;-80
2022/10/04 10:14:00;;;;;;;14.73;6.10;;;16.00;99.90;;;;;;6340402;22;20113;-80
2022/10/04 10:17:02;;;;;;;11.05;5.70;;;16.10;99.90;;;;;;6286692;22;20018;-81
2022/10/04 10:19:52;;;;;;;10.50;5.47;;;16.10;99.90;;;;;;6312517;22;20010;-79
2022/10/04 10:22:29;;;;;;;10.73;5.45;;;16.20;99.90;;;;;;6312173;22;20022;-81
2022/10/04 10:25:20;;;;;;;12.90;5.97;;;16.20;99.90;;;;;;6312258;22;20352;-79
2022/10/04 10:28:17;;;;;;;13.30;5.85;;;16.30;99.90;;;;;;6312816;22;20018;-81
2022/10/04 10:30:57;;;;;;;15.30;6.57;;;16.40;99.90;;;;;;6339957;22;20051;-80
2022/10/04 10:33:56;;;;;;;12.23;6.35;;;16.40;99.90;;;;;;6340528;22;20011;-80
2022/10/04 10:36:47;;;;;;;15.55;7.07;;;16.30;99.90;;;;;;6312288;22;20082;-80
2022/10/04 10:39:36;;;;;;;14.32;6.07;;;16.10;99.90;;;;;;6313201;22;20007;-81
2022/10/04 10:42:09;;;;;;;12.60;6.82;;;16.00;99.90;;;;;;6286533;22;20089;-83
2022/10/04 10:44:38;;;;;;;11.32;6.13;;;16.00;99.90;;;;;;6312200;22;20022;-81
2022/10/04 10:47:37;;;;;;;14.43;6.63;;;16.10;99.90;;;;;;6312532;22;20059;-81
2022/10/04 10:50:21;;;;;;;15.00;6.40;;;16.10;99.90;;;;;;6292324;22;20336;-81
2022/10/04 10:53:06;;;;;;;11.77;6.40;;;16.20;99.90;;;;;;6312195;22;20015;-81
2022/10/04 10:55:40;;;;;;;17.58;6.45;;;16.30;99.90;;;;;;6311801;22;20444;-83
2022/10/04 10:58:47;;;;;;;12.80;6.22;;;16.40;99.90;;;;;;6312233;22;20022;-82
2022/10/04 11:01:52;;;;;;;11.65;6.70;;;16.40;99.90;;;;;;6311771;22;20011;-81
2022/10/04 11:04:23;;;;;;;12.40;6.72;;;16.40;99.90;;;;;;6311933;22;20057;-81
2022/10/04 11:07:01;;;;;;;12.65;6.82;;;16.50;99.90;;;;;;6339797;22;20010;-79
2022/10/04 11:09:47;;;;;;;13.98;6.53;;;16.50;99.90;;;;;;6312055;22;20454;-79
2022/10/04 11:12:25;;;;;;;13.60;7.43;;;16.60;99.90;;;;;;6312123;22;20006;-81
2022/10/04 11:15:37;;;;;;;15.13;7.00;;;16.80;99.90;;;;;;6312913;22;20270;-80
2022/10/04 11:18:22;;;;;;;11.52;5.97;;;16.90;99.90;;;;;;6311925;22;20463;-77
2022/10/04 11:21:10;;;;;;;8.60;5.43;;;16.90;99.90;;;;;;6312564;22;20049;-78
2022/10/04 11:23:55;;;;;;;13.77;6.45;;;17.10;99.90;;;;;;6340061;22;20018;-81
2022/10/04 11:26:29;;;;;;;13.55;6.00;;;17.20;99.90;;;;;;6312089;22;20143;-79
2022/10/04 11:29:23;;;;;;;14.18;6.22;;;17.20;99.90;;;;;;6311808;22;20015;-79
2022/10/04 11:32:00;;;;;;;11.55;6.43;;;17.20;99.90;;;;;;6339860;22;20010;-78
2022/10/04 11:35:06;;;;;;;13.48;6.47;;;17.20;99.90;;;;;;6311288;22;20011;-79
2022/10/04 11:37:40;;;;;;;10.57;6.10;;;17.20;99.90;;;;;;6312941;22;20015;-82
2022/10/04 11:40:24;;;;;;;12.63;6.43;;;17.20;99.90;;;;;;6339587;22;20318;-77
2022/10/04 11:43:10;;;;;;;13.82;6.53;;;17.20;99.90;;;;;;6285688;22;20006;-77
2022/10/04 11:46:00;;;;;;;17.00;6.47;;;17.20;99.90;;;;;;6285875;22;20387;-80
2022/10/04 11:48:38;;;;;;;9.52;6.07;;;17.30;99.90;;;;;;6339420;22;20007;-80
2022/10/04 11:51:19;;;;;;;11.32;5.38;;;17.30;99.90;;;;;;6339479;22;20050;-80
2022/10/04 11:54:26;;;;;;;11.68;5.55;;;17.30;99.90;;;;;;6311590;22;20015;-81
2022/10/04 11:57:26;;;;;;;12.25;5.63;;;17.20;99.90;;;;;;6311250;22;20471;-79
2022/10/04 12:00:14;;;;;;;10.32;5.75;;;17.20;99.90;;;;;;6339741;22;20010;-82
2022/10/04 12:02:55;;;;;;;9.93;5.50;;;17.30;99.90;;;;;;6311319;22;20017;-79
2022/10/04 12:05:51;;;;;;;10.60;5.75;;;17.40;99.90;;;;;;6311467;22;20015;-83
2022/10/04 12:08:47;;;;;;;13.13;6.57;;;17.30;99.90;;;;;;6312046;22;20011;-82
2022/10/04 12:11:24;;;;;;;10.45;5.95;;;17.40;99.90;;;;;;6311526;22;20014;-81
2022/10/04 12:13:55;;;;;;;15.75;6.50;;;17.50;99.90;;;;;;6311552;22;20072;-81
2022/10/04 12:16:47;;;;;;;14.02;6.30;;;17.70;99.90;;;;;;6311375;22;20083;-79
2022/10/04 12:19:51;;;;;;;12.18;5.13;;;17.80;99.90;;;;;;6339907;22;20067;-80
2022/10/04 12:22:44;;;;;;;10.63;4.80;;;17.90;99.90;;;;;;6285739;22;20017;-78
2022/10/04 12:25:29;;;;;;;7.75;4.70;;;18.00;99.90;;;;;;6312058;22;20493;-83
2022/10/04 12:28:43;;;;;;;10.43;6.00;;;18.10;99.90;;;;;;6313450;22;20011;-78
2022/10/04 12:31:21;;;;;;;12.35;5.32;;;18.30;99.90;;;;;;6229594;22;20037;-79
2022/10/04 12:33:53;;;;;;;10.70;4.95;;;18.40;99.90;;;;;;6312920;22;20086;-78
2022/10/04 12:36:31;;;;;;;9.45;5.18;;;18.40;99.90;;;;;;6339186;22;20018;-79
2022/10/04 12:39:20;;;;;;;9.50;5.28;;;18.40;99.90;;;;;;6339587;22;20445;-78
2022/10/04 12:41:56;;;;;;;13.48;4.97;;;18.60;99.90;;;;;;6313032;22;20015;-81
2022/10/04 12:44:41;;;;;;;9.30;4.60;;;18.70;99.90;;;;;;6312635;22;20508;-77
2022/10/04 12:47:27;;;;;;;7.80;4.65;;;18.80;99.90;;;;;;6314038;22;20064;-83
2022/10/04 12:49:59;;;;;;;8.00;3.90;;;18.80;99.90;;;;;;6313647;22;20437;-84
2022/10/04 12:52:40;;;;;;;11.63;4.55;;;18.80;99.90;;;;;;6313872;22;20037;-82
2022/10/04 12:55:39;;;;;;;7.28;4.10;;;18.80;99.90;;;;;;6341476;22;20091;-80
2022/10/04 12:58:21;;;;;;;12.95;5.10;;;18.60;99.90;;;;;;6287597;22;20022;-78
2022/10/04 13:00:50;;;;;;;12.23;4.82;;;18.40;99.90;;;;;;6312845;22;20014;-78
2022/10/04 13:03:29;;;;;;;8.85;4.53;;;18.30;99.90;;;;;;6340765;22;20379;-80
2022/10/04 13:06:19;;;;;;;7.75;4.45;;;18.20;99.90;;;;;;6313257;22;20022;-76
2022/10/04 13:09:00;;;;;;;9.82;5.47;;;18.10;99.90;;;;;;6341024;22;20011;-76
2022/10/04 13:11:50;;;;;;;10.93;4.85;;;17.90;99.90;;;;;;6313209;22;20090;-84
2022/10/04 13:14:40;;;;;;;9.77;5.43;;;17.80;99.90;;;;;;6313413;22;20483;-80
2022/10/04 13:17:08;;;;;;;9.25;5.20;;;17.70;99.90;;;;;;6340898;22;20019;-78
2022/10/04 13:19:49;;;;;;;12.40;4.80;;;17.70;99.90;;;;;;6340649;22;20018;-77
2022/10/04 13:22:43;;;;;;;9.73;4.60;;;17.80;99.90;;;;;;6312827;22;20015;-77
2022/10/04 13:25:44;;;;;;;9.68;4.30;;;18.10;99.90;;;;;;6312953;22;20007;-78
2022/10/04 13:28:12;;;;;;;8.93;4.60;;;18.50;99.90;;;;;;6247836;22;20376;-78
2022/10/04 13:31:03;;;;;;;9.55;5.03;;;18.50;99.90;;;;;;6312637;22;20019;-78
2022/10/04 13:33:40;;;;;;;9.43;4.35;;;18.50;99.90;;;;;;6313130;22;20017;-77
2022/10/04 13:36:23;;;;;;;14.50;4.18;;;18.50;99.90;;;;;;6312935;22;20033;-79
2022/10/04 13:39:08;;;;;;;7.07;3.78;;;18.50;99.90;;;;;;6313148;22;20045;-79
2022/10/04 13:41:33;;;;;;;5.57;2.85;;;18.50;99.90;;;;;;6313656;22;20362;-77
2022/10/04 13:44:37;;;;;;;6.65;3.20;;;18.50;99.90;;;;;;6313103;22;20011;-79
2022/10/04 13:47:11;;;;;;;10.75;3.70;;;18.60;99.90;;;;;;6340990;22;20033;-80
2022/10/04 13:49:57;;;;;;;6.17;3.53;;;18.50;99.90;;;;;;6312863;22;20027;-80
2022/10/04 13:58:18;;;;;;;5.90;3.60;;;18.20;99.90;;;;;;6312430;22;20118;-80
2022/10/04 14:01:02;;;;;;;9.80;3.80;;;18.10;99.90;;;;;;6313055;22;20010;-79
2022/10/04 14:03:49;;;;;;;6.95;3.22;;;18.10;99.90;;;;;;6313016;22;20007;-77
2022/10/04 14:06:52;;;;;;;6.07;3.13;;;18.10;99.90;;;;;;6312393;22;20063;-78
2022/10/04 14:09:39;;;;;;;8.15;3.15;;;18.10;99.90;;;;;;6312951;22;20014;-78
2022/10/04 14:12:36;;;;;;;11.20;3.33;;;18.10;99.90;;;;;;6312768;22;20393;-83
2022/10/04 14:15:18;;;;;;;;;;;18.20;99.90;;;;;;6313064;22;20084;-78
2022/10/04 14:18:03;;;;;;;6.63;3.40;;;18.30;99.90;;;;;;6340859;22;20286;-79
2022/10/04 14:20:56;;;;;;;5.55;3.22;;;18.30;99.90;;;;;;6312450;22;20015;-81
2022/10/04 14:23:32;;;;;;;11.70;3.58;;;18.30;99.90;;;;;;6341557;22;20285;-82
2022/10/04 14:26:06;;;;;;;6.25;3.28;;;18.20;99.90;;;;;;6312165;22;20043;-79
2022/10/04 14:28:44;;;;;;;7.28;3.30;;;18.10;99.90;;;;;;6312175;22;20018;-79
2022/10/04 14:31:34;;;;;;;8.07;3.38;;;18.00;99.90;;;;;;6312509;22;20071;-80
2022/10/04 14:34:52;;;;;;;8.52;3.28;;;17.90;99.90;;;;;;6312553;22;20054;-80
2022/10/04 14:38:00;;;;;;;7.32;3.03;;;17.90;99.90;;;;;;6188861;23;20446;-80
2022/10/04 14:40:59;;;;;;;6.65;2.90;;;18.00;99.90;;;;;;6214410;23;20012;-81
2022/10/04 14:44:02;;;;;;;6.70;2.95;;;18.10;99.90;;;;;;6312225;22;20018;-81
2022/10/04 14:46:52;;;;;;;8.55;2.95;;;18.10;99.90;;;;;;6312881;22;20443;-79
2022/10/04 14:49:28;;;;;;;7.38;3.20;;;18.20;99.90;;;;;;6312567;22;20086;-79
2022/10/04 14:52:19;;;;;;;9.45;3.42;;;18.10;99.90;;;;;;6312292;22;20073;-81
2022/10/04 14:54:53;;;;;;;9.77;3.33;;;18.00;99.90;;;;;;6312060;22;20015;-77
2022/10/04 14:57:36;;;;;;;8.00;2.97;;;18.00;99.90;;;;;;6340225;22;20011;-80
2022/10/04 15:00:25;;;;;;;8.80;3.05;;;18.10;99.90;;;;;;6286492;22;20011;-80
2022/10/04 15:03:02;;;;;;;12.95;4.13;;;18.30;99.90;;;;;;6339844;22;20007;-81
2022/10/04 15:06:05;;;;;;;6.63;2.83;;;18.20;99.90;;;;;;6312121;22;20014;-78
2022/10/04 15:08:49;;;;;;;7.40;3.30;;;18.10;99.90;;;;;;6307938;22;20011;-78
2022/10/04 15:11:39;;;;;;;6.50;3.53;;;18.00;99.90;;;;;;6313438;22;20175;-81
2022/10/04 15:14:33;;;;;;;7.05;3.35;;;17.90;99.90;;;;;;6341610;22;20071;-78
2022/10/04 15:17:02;;;;;;;8.45;3.33;;;17.90;99.90;;;;;;6313347;22;20071;-80
2022/10/04 15:19:53;;;;;;;9.77;3.50;;;17.90;99.90;;;;;;6286895;22;20085;-77
2022/10/04 15:22:26;;;;;;;14.50;3.42;;;17.90;99.90;;;;;;6311999;22;20011;-79
2022/10/04 15:24:53;;;;;;;8.15;3.55;;;17.90;99.90;;;;;;6312085;22;20148;-78
2022/10/04 15:27:33;;;;;;;8.77;3.42;;;17.90;99.90;;;;;;6311633;22;20050;-79
2022/10/04 15:29:59;;;;;;;6.80;2.80;;;17.80;99.90;;;;;;6312183;22;20115;-81
2022/10/04 15:32:36;;;;;;;5.47;3.60;;;17.80;99.90;;;;;;6311986;22;20440;-79
2022/10/04 15:35:17;;;;;;;4.72;2.92;;;17.80;99.90;;;;;;6311841;22;20015;-79
2022/10/04 15:37:56;;;;;;;8.38;3.33;;;17.80;99.90;;;;;;6286323;22;20011;-77
2022/10/04 15:40:32;;;;;;;8.05;3.97;;;17.90;99.90;;;;;;6311976;22;20007;-80
2022/10/04 15:43:19;;;;;;;7.75;3.30;;;18.00;99.90;;;;;;6339723;22;20007;-81
2022/10/04 15:46:00;;;;;;;9.20;3.35;;;18.00;99.90;;;;;;6312954;22;20014;-80
2022/10/04 15:48:45;;;;;;;7.82;3.33;;;17.90;99.90;;;;;;6312856;22;20064;-77
2022/10/04 15:51:19;;;;;;;6.07;3.90;;;17.80;99.90;;;;;;6340571;22;20017;-79
2022/10/04 15:54:17;;;;;;;7.88;3.75;;;17.70;99.90;;;;;;6312201;22;20015;-78
2022/10/04 15:56:57;;;;;;;13.43;3.60;;;17.50;99.90;;;;;;6262989;22;20027;-76
2022/10/04 15:59:46;;;;;;;7.20;3.50;;;17.50;99.90;;;;;;6311857;22;20059;-77
2022/10/04 16:02:47;;;;;;;6.65;3.50;;;17.30;99.90;;;;;;6312099;22;20015;-75
2022/10/04 16:05:22;;;;;;;8.88;3.58;;;17.20;99.90;;;;;;6339843;22;20335;-76
2022/10/04 16:08:09;;;;;;;8.70;4.28;;;17.10;99.90;;;;;;6339867;22;20015;-80
2022/10/04 16:10:59;;;;;;;9.80;4.07;;;17.10;99.90;;;;;;6339493;22;20015;-77
2022/10/04 16:13:49;;;;;;;7.30;3.30;;;17.00;99.90;;;;;;6311699;22;20010;-78
2022/10/04 16:16:15;;;;;;;9.00;3.88;;;16.90;99.90;;;;;;6339507;22;20023;-76
2022/10/04 16:19:17;;;;;;;10.57;4.28;;;16.80;99.90;;;;;;6339190;22;20353;-80
2022/10/04 16:21:46;;;;;;;7.65;3.58;;;16.80;99.90;;;;;;6311588;22;20011;-78
2022/10/04 16:24:23;;;;;;;9.43;3.50;;;16.70;99.90;;;;;;6285670;22;20093;-78
2022/10/04 16:26:55;;;;;;;9.15;4.00;;;16.70;99.90;;;;;;6311308;22;20015;-79
2022/10/04 16:29:54;;;;;;;12.43;4.15;;;16.60;99.90;;;;;;6312267;22;20025;-79
2022/10/04 16:32:26;;;;;;;9.27;3.78;;;16.60;99.90;;;;;;6311212;22;20018;-78
2022/10/04 16:35:03;;;;;;;8.35;3.50;;;16.60;99.90;;;;;;6311346;22;20034;-78
2022/10/04 16:37:43;;;;;;;9.05;4.30;;;16.50;99.90;;;;;;6338692;22;20030;-81
2022/10/04 16:40:10;;;;;;;9.32;3.63;;;16.50;99.90;;;;;;6338161;22;20371;-77
2022/10/04 16:43:00;;;;;;;8.73;3.85;;;16.40;99.90;;;;;;6310002;22;20068;-79
2022/10/04 16:45:31;;;;;;;7.85;3.85;;;16.40;99.90;;;;;;6309836;22;20124;-79
2022/10/04 16:48:05;;;;;;;8.88;4.28;;;16.30;99.90;;;;;;6338058;22;20484;-78
2022/10/04 16:51:01;;;;;;;7.35;3.20;;;16.40;99.90;;;;;;6309961;22;20017;-77
2022/10/04 16:53:49;;;;;;;10.48;3.78;;;16.40;99.90;;;;;;6309953;22;20432;-76
2022/10/04 16:56:19;;;;;;;8.10;3.63;;;16.30;99.90;;;;;;6309921;22;20744;-79
2022/10/04 16:59:08;;;;;;;10.98;4.25;;;16.30;99.90;;;;;;6309853;22;20026;-77
2022/10/04 17:02:08;;;;;;;7.20;3.65;;;16.20;99.90;;;;;;6337835;22;20034;-75
2022/10/04 17:04:40;;;;;;;9.20;4.18;;;16.20;99.90;;;;;;6310580;22;20440;-78
2022/10/04 17:07:09;;;;;;;11.25;3.90;;;16.20;99.90;;;;;;6310480;22;20072;-78
2022/10/04 17:09:51;;;;;;;9.20;3.95;;;16.20;99.90;;;;;;6284348;22;20018;-76